sensor_id;sensor_type;location;lat;lon;timestamp;temperature;humidity
69944;DHT22;57257;48.408;-4.498;2023-04-25T00:01:20;11.83;61.29
69944;DHT22;57257;48.408;-4.498;2023-04-25T00:03:47;11.79;61.30
69944;DHT22;57257;48.408;-4.498;2023-04-25T00:06:12;11.80;61.20
69944;DHT22;57257;48.408;-4.498;2023-04-25T00:08:39;11.80;61.25
69944;DHT22;57257;48.408;-4.498;2023-04-25T00:11:04;11.82;61.37
69944;DHT22;57257;48.408;-4.498;2023-04-25T00:13:30;11.80;61.37
69944;DHT22;57257;48.408;-4.498;2023-04-25T00:15:55;11.82;61.27
69944;DHT22;57257;48.408;-4.498;2023-04-25T00:18:25;11.82;61.28
69944;DHT22;57257;48.408;-4.498;2023-04-25T00:20:54;11.83;61.36
69944;DHT22;57257;48.408;-4.498;2023-04-25T00:23:19;11.83;61.53
69944;DHT22;57257;48.408;-4.498;2023-04-25T00:25:45;11.82;61.42
69944;DHT22;57257;48.408;-4.498;2023-04-25T00:28:12;11.82;61.41
69944;DHT22;57257;48.408;-4.498;2023-04-25T00:30:38;11.82;61.30
69944;DHT22;57257;48.408;-4.498;2023-04-25T00:33:04;11.85;61.56
69944;DHT22;57257;48.408;-4.498;2023-04-25T00:35:29;11.85;61.72
69944;DHT22;57257;48.408;-4.498;2023-04-25T00:37:54;11.79;61.76
69944;DHT22;57257;48.408;-4.498;2023-04-25T00:40:20;11.72;62.12
69944;DHT22;57257;48.408;-4.498;2023-04-25T00:42:47;11.63;62.40
69944;DHT22;57257;48.408;-4.498;2023-04-25T00:45:14;11.62;62.29
69944;DHT22;57257;48.408;-4.498;2023-04-25T00:47:40;11.58;62.58
69944;DHT22;57257;48.408;-4.498;2023-04-25T00:50:06;11.55;62.30
69944;DHT22;57257;48.408;-4.498;2023-04-25T00:52:32;11.52;62.71
69944;DHT22;57257;48.408;-4.498;2023-04-25T00:54:58;11.43;62.82
69944;DHT22;57257;48.408;-4.498;2023-04-25T00:57:24;11.42;62.87
69944;DHT22;57257;48.408;-4.498;2023-04-25T00:59:51;11.40;63.05
69944;DHT22;57257;48.408;-4.498;2023-04-25T01:02:18;11.38;63.14
69944;DHT22;57257;48.408;-4.498;2023-04-25T01:04:44;11.29;63.04
69944;DHT22;57257;48.408;-4.498;2023-04-25T01:07:10;11.28;63.00
69944;DHT22;57257;48.408;-4.498;2023-04-25T01:09:35;11.19;63.10
69944;DHT22;57257;48.408;-4.498;2023-04-25T01:12:02;11.15;63.06
69944;DHT22;57257;48.408;-4.498;2023-04-25T01:14:28;11.08;63.30
69944;DHT22;57257;48.408;-4.498;2023-04-25T01:16:55;11.05;63.42
69944;DHT22;57257;48.408;-4.498;2023-04-25T01:19:20;11.04;63.63
69944;DHT22;57257;48.408;-4.498;2023-04-25T01:21:46;11.04;63.60
69944;DHT22;57257;48.408;-4.498;2023-04-25T01:24:12;11.07;63.63
69944;DHT22;57257;48.408;-4.498;2023-04-25T01:26:39;11.05;63.59
69944;DHT22;57257;48.408;-4.498;2023-04-25T01:29:06;11.07;63.83
69944;DHT22;57257;48.408;-4.498;2023-04-25T01:31:32;11.07;63.77
69944;DHT22;57257;48.408;-4.498;2023-04-25T01:34:00;11.07;63.77
69944;DHT22;57257;48.408;-4.498;2023-04-25T01:36:25;11.05;63.94
69944;DHT22;57257;48.408;-4.498;2023-04-25T01:38:52;11.05;63.97
69944;DHT22;57257;48.408;-4.498;2023-04-25T01:41:17;11.05;63.76
69944;DHT22;57257;48.408;-4.498;2023-04-25T01:43:44;11.01;63.87
69944;DHT22;57257;48.408;-4.498;2023-04-25T01:46:11;11.04;63.92
69944;DHT22;57257;48.408;-4.498;2023-04-25T01:48:36;11.07;63.83
69944;DHT22;57257;48.408;-4.498;2023-04-25T01:51:02;11.08;63.90
69944;DHT22;57257;48.408;-4.498;2023-04-25T01:53:28;11.10;63.94
69944;DHT22;57257;48.408;-4.498;2023-04-25T01:55:53;11.08;63.97
69944;DHT22;57257;48.408;-4.498;2023-04-25T01:58:18;11.10;63.77
69944;DHT22;57257;48.408;-4.498;2023-04-25T02:00:44;11.11;64.08
69944;DHT22;57257;48.408;-4.498;2023-04-25T02:03:09;11.12;64.20
69944;DHT22;57257;48.408;-4.498;2023-04-25T02:05:38;11.11;64.10
69944;DHT22;57257;48.408;-4.498;2023-04-25T02:08:05;11.16;64.16
69944;DHT22;57257;48.408;-4.498;2023-04-25T02:10:31;11.18;64.09
69944;DHT22;57257;48.408;-4.498;2023-04-25T02:12:57;11.22;63.89
69944;DHT22;57257;48.408;-4.498;2023-04-25T02:15:23;11.19;63.98
69944;DHT22;57257;48.408;-4.498;2023-04-25T02:17:48;11.18;63.86
69944;DHT22;57257;48.408;-4.498;2023-04-25T02:20:14;11.11;63.76
69944;DHT22;57257;48.408;-4.498;2023-04-25T02:22:41;11.11;63.88
69944;DHT22;57257;48.408;-4.498;2023-04-25T02:25:08;11.11;63.99
69944;DHT22;57257;48.408;-4.498;2023-04-25T02:27:34;11.05;63.97
69944;DHT22;57257;48.408;-4.498;2023-04-25T02:30:00;11.07;64.33
69944;DHT22;57257;48.408;-4.498;2023-04-25T02:32:26;11.05;64.34
69944;DHT22;57257;48.408;-4.498;2023-04-25T02:34:52;11.04;64.57
69944;DHT22;57257;48.408;-4.498;2023-04-25T02:37:17;11.01;64.47
69944;DHT22;57257;48.408;-4.498;2023-04-25T02:39:43;11.04;64.42
69944;DHT22;57257;48.408;-4.498;2023-04-25T02:42:08;11.05;64.34
69944;DHT22;57257;48.408;-4.498;2023-04-25T02:44:33;11.04;64.38
69944;DHT22;57257;48.408;-4.498;2023-04-25T02:46:59;11.04;64.47
69944;DHT22;57257;48.408;-4.498;2023-04-25T02:49:25;11.05;64.45
69944;DHT22;57257;48.408;-4.498;2023-04-25T02:51:50;11.07;64.56
69944;DHT22;57257;48.408;-4.498;2023-04-25T02:54:15;11.10;64.55
69944;DHT22;57257;48.408;-4.498;2023-04-25T02:56:41;11.11;64.57
69944;DHT22;57257;48.408;-4.498;2023-04-25T02:59:06;11.11;64.64
69944;DHT22;57257;48.408;-4.498;2023-04-25T03:01:31;11.12;64.70
69944;DHT22;57257;48.408;-4.498;2023-04-25T03:03:57;11.16;64.65
69944;DHT22;57257;48.408;-4.498;2023-04-25T03:06:22;11.16;64.37
69944;DHT22;57257;48.408;-4.498;2023-04-25T03:08:48;11.08;64.53
69944;DHT22;57257;48.408;-4.498;2023-04-25T03:11:13;11.05;64.52
69944;DHT22;57257;48.408;-4.498;2023-04-25T03:13:38;11.01;64.51
69944;DHT22;57257;48.408;-4.498;2023-04-25T03:16:04;10.97;64.68
69944;DHT22;57257;48.408;-4.498;2023-04-25T03:18:30;10.98;64.73
69944;DHT22;57257;48.408;-4.498;2023-04-25T03:20:55;11.01;64.69
69944;DHT22;57257;48.408;-4.498;2023-04-25T03:23:21;11.04;64.84
69944;DHT22;57257;48.408;-4.498;2023-04-25T03:25:46;11.03;64.76
69944;DHT22;57257;48.408;-4.498;2023-04-25T03:28:11;11.05;64.76
69944;DHT22;57257;48.408;-4.498;2023-04-25T03:30:37;11.07;64.89
69944;DHT22;57257;48.408;-4.498;2023-04-25T03:33:02;11.03;64.74
69944;DHT22;57257;48.408;-4.498;2023-04-25T03:35:28;11.01;64.87
69944;DHT22;57257;48.408;-4.498;2023-04-25T03:37:53;10.98;65.00
69944;DHT22;57257;48.408;-4.498;2023-04-25T03:40:19;10.97;65.02
69944;DHT22;57257;48.408;-4.498;2023-04-25T03:42:44;10.95;65.03
69944;DHT22;57257;48.408;-4.498;2023-04-25T03:45:10;10.97;65.15
69944;DHT22;57257;48.408;-4.498;2023-04-25T03:47:36;10.97;64.90
69944;DHT22;57257;48.408;-4.498;2023-04-25T03:50:01;10.85;65.09
69944;DHT22;57257;48.408;-4.498;2023-04-25T03:52:27;10.77;65.19
69944;DHT22;57257;48.408;-4.498;2023-04-25T03:54:53;10.73;65.43
69944;DHT22;57257;48.408;-4.498;2023-04-25T03:57:18;10.73;65.31
69944;DHT22;57257;48.408;-4.498;2023-04-25T03:59:44;10.73;65.27
69944;DHT22;57257;48.408;-4.498;2023-04-25T04:02:09;10.74;65.11
69944;DHT22;57257;48.408;-4.498;2023-04-25T04:04:35;10.74;65.03
69944;DHT22;57257;48.408;-4.498;2023-04-25T04:07:00;10.74;65.11
69944;DHT22;57257;48.408;-4.498;2023-04-25T04:09:26;10.74;65.16
69944;DHT22;57257;48.408;-4.498;2023-04-25T04:11:52;10.77;65.05
69944;DHT22;57257;48.408;-4.498;2023-04-25T04:14:18;10.78;64.99
69944;DHT22;57257;48.408;-4.498;2023-04-25T04:16:43;10.75;64.90
69944;DHT22;57257;48.408;-4.498;2023-04-25T04:19:09;10.78;64.85
69944;DHT22;57257;48.408;-4.498;2023-04-25T04:21:34;10.80;64.96
69944;DHT22;57257;48.408;-4.498;2023-04-25T04:23:59;10.81;64.85
69944;DHT22;57257;48.408;-4.498;2023-04-25T04:26:25;10.85;64.96
69944;DHT22;57257;48.408;-4.498;2023-04-25T04:28:52;10.83;65.24
69944;DHT22;57257;48.408;-4.498;2023-04-25T04:31:22;10.83;65.21
69944;DHT22;57257;48.408;-4.498;2023-04-25T04:33:47;10.85;65.26
69944;DHT22;57257;48.408;-4.498;2023-04-25T04:36:13;10.88;65.07
69944;DHT22;57257;48.408;-4.498;2023-04-25T04:38:39;10.93;65.11
69944;DHT22;57257;48.408;-4.498;2023-04-25T04:41:06;10.97;65.09
69944;DHT22;57257;48.408;-4.498;2023-04-25T04:43:31;11.01;65.13
69944;DHT22;57257;48.408;-4.498;2023-04-25T04:46:00;11.03;65.20
69944;DHT22;57257;48.408;-4.498;2023-04-25T04:48:25;11.05;65.32
69944;DHT22;57257;48.408;-4.498;2023-04-25T04:50:51;11.10;65.32
69944;DHT22;57257;48.408;-4.498;2023-04-25T04:53:16;11.08;65.48
69944;DHT22;57257;48.408;-4.498;2023-04-25T04:55:42;11.08;65.43
69944;DHT22;57257;48.408;-4.498;2023-04-25T04:58:08;11.10;65.45
69944;DHT22;57257;48.408;-4.498;2023-04-25T05:00:33;11.14;65.44
69944;DHT22;57257;48.408;-4.498;2023-04-25T05:02:59;11.16;65.36
69944;DHT22;57257;48.408;-4.498;2023-04-25T05:05:25;11.10;65.33
69944;DHT22;57257;48.408;-4.498;2023-04-25T05:07:50;11.12;65.23
69944;DHT22;57257;48.408;-4.498;2023-04-25T05:10:18;11.12;65.20
69944;DHT22;57257;48.408;-4.498;2023-04-25T05:12:44;11.12;65.09
69944;DHT22;57257;48.408;-4.498;2023-04-25T05:15:10;11.12;65.06
69944;DHT22;57257;48.408;-4.498;2023-04-25T05:17:35;11.14;64.96
69944;DHT22;57257;48.408;-4.498;2023-04-25T05:20:01;11.11;64.89
69944;DHT22;57257;48.408;-4.498;2023-04-25T05:22:26;11.12;65.02
69944;DHT22;57257;48.408;-4.498;2023-04-25T05:24:52;11.15;64.99
69944;DHT22;57257;48.408;-4.498;2023-04-25T05:27:18;11.16;64.98
69944;DHT22;57257;48.408;-4.498;2023-04-25T05:29:44;11.16;64.95
69944;DHT22;57257;48.408;-4.498;2023-04-25T05:32:09;11.15;64.91
69944;DHT22;57257;48.408;-4.498;2023-04-25T05:34:35;11.15;64.95
69944;DHT22;57257;48.408;-4.498;2023-04-25T05:37:00;11.16;64.95
69944;DHT22;57257;48.408;-4.498;2023-04-25T05:39:26;11.14;64.96
69944;DHT22;57257;48.408;-4.498;2023-04-25T05:41:51;11.07;64.98
69944;DHT22;57257;48.408;-4.498;2023-04-25T05:44:17;11.01;65.17
69944;DHT22;57257;48.408;-4.498;2023-04-25T05:46:43;11.01;65.13
69944;DHT22;57257;48.408;-4.498;2023-04-25T05:49:08;11.04;65.21
69944;DHT22;57257;48.408;-4.498;2023-04-25T05:51:33;11.05;65.19
69944;DHT22;57257;48.408;-4.498;2023-04-25T05:53:59;11.08;65.31
69944;DHT22;57257;48.408;-4.498;2023-04-25T05:56:25;11.11;65.24
69944;DHT22;57257;48.408;-4.498;2023-04-25T05:58:50;11.12;65.22
69944;DHT22;57257;48.408;-4.498;2023-04-25T06:01:16;11.19;65.26
69944;DHT22;57257;48.408;-4.498;2023-04-25T06:03:41;11.24;65.08
69944;DHT22;57257;48.408;-4.498;2023-04-25T06:06:08;11.28;65.04
69944;DHT22;57257;48.408;-4.498;2023-04-25T06:08:34;11.29;65.11
69944;DHT22;57257;48.408;-4.498;2023-04-25T06:11:00;11.35;65.30
69944;DHT22;57257;48.408;-4.498;2023-04-25T06:13:25;11.42;65.36
69944;DHT22;57257;48.408;-4.498;2023-04-25T06:15:51;11.49;65.27
69944;DHT22;57257;48.408;-4.498;2023-04-25T06:18:16;11.56;65.38
69944;DHT22;57257;48.408;-4.498;2023-04-25T06:20:41;11.63;65.44
69944;DHT22;57257;48.408;-4.498;2023-04-25T06:23:07;11.75;65.54
69944;DHT22;57257;48.408;-4.498;2023-04-25T06:25:32;11.80;65.50
69944;DHT22;57257;48.408;-4.498;2023-04-25T06:27:58;11.87;65.43
69944;DHT22;57257;48.408;-4.498;2023-04-25T06:30:23;11.87;65.25
69944;DHT22;57257;48.408;-4.498;2023-04-25T06:32:53;11.87;65.01
69944;DHT22;57257;48.408;-4.498;2023-04-25T06:35:19;11.85;65.07
69944;DHT22;57257;48.408;-4.498;2023-04-25T06:37:44;11.86;65.20
69944;DHT22;57257;48.408;-4.498;2023-04-25T06:40:10;11.87;64.99
69944;DHT22;57257;48.408;-4.498;2023-04-25T06:42:36;11.79;64.79
69944;DHT22;57257;48.408;-4.498;2023-04-25T06:45:02;11.75;64.92
69944;DHT22;57257;48.408;-4.498;2023-04-25T06:47:27;11.76;65.07
69944;DHT22;57257;48.408;-4.498;2023-04-25T06:49:52;11.86;65.15
69944;DHT22;57257;48.408;-4.498;2023-04-25T06:52:18;11.96;65.03
69944;DHT22;57257;48.408;-4.498;2023-04-25T06:54:44;12.03;64.74
69944;DHT22;57257;48.408;-4.498;2023-04-25T06:57:10;12.13;64.91
69944;DHT22;57257;48.408;-4.498;2023-04-25T07:00:09;12.20;65.02
69944;DHT22;57257;48.408;-4.498;2023-04-25T07:02:35;12.27;65.09
69944;DHT22;57257;48.408;-4.498;2023-04-25T07:05:02;12.37;65.15
69944;DHT22;57257;48.408;-4.498;2023-04-25T07:07:29;12.48;65.10
69944;DHT22;57257;48.408;-4.498;2023-04-25T07:09:55;12.61;65.09
69944;DHT22;57257;48.408;-4.498;2023-04-25T07:12:22;12.77;65.06
69944;DHT22;57257;48.408;-4.498;2023-04-25T07:14:51;12.92;64.48
69944;DHT22;57257;48.408;-4.498;2023-04-25T07:17:18;13.02;64.25
69944;DHT22;57257;48.408;-4.498;2023-04-25T07:19:45;13.19;64.28
69944;DHT22;57257;48.408;-4.498;2023-04-25T07:22:12;13.49;64.06
69944;DHT22;57257;48.408;-4.498;2023-04-25T07:24:38;13.72;63.33
69944;DHT22;57257;48.408;-4.498;2023-04-25T07:27:04;13.86;63.05
69944;DHT22;57257;48.408;-4.498;2023-04-25T07:29:30;13.90;62.58
69944;DHT22;57257;48.408;-4.498;2023-04-25T07:31:57;13.89;62.39
69944;DHT22;57257;48.408;-4.498;2023-04-25T07:34:23;13.82;62.34
69944;DHT22;57257;48.408;-4.498;2023-04-25T07:36:48;13.72;61.97
69944;DHT22;57257;48.408;-4.498;2023-04-25T07:39:14;13.66;62.25
69944;DHT22;57257;48.408;-4.498;2023-04-25T07:41:40;13.63;62.08
69944;DHT22;57257;48.408;-4.498;2023-04-25T07:44:05;13.59;62.27
69944;DHT22;57257;48.408;-4.498;2023-04-25T07:46:30;13.72;62.37
69944;DHT22;57257;48.408;-4.498;2023-04-25T07:48:56;13.86;61.75
69944;DHT22;57257;48.408;-4.498;2023-04-25T07:51:22;13.93;61.71
69944;DHT22;57257;48.408;-4.498;2023-04-25T07:53:49;13.99;60.98
69944;DHT22;57257;48.408;-4.498;2023-04-25T07:56:16;13.99;61.26
69944;DHT22;57257;48.408;-4.498;2023-04-25T07:58:47;13.99;60.81
69944;DHT22;57257;48.408;-4.498;2023-04-25T08:01:27;13.97;60.78
69944;DHT22;57257;48.408;-4.498;2023-04-25T08:03:53;14.02;60.72
69944;DHT22;57257;48.408;-4.498;2023-04-25T08:06:19;14.07;60.70
69944;DHT22;57257;48.408;-4.498;2023-04-25T08:08:45;14.25;60.35
69944;DHT22;57257;48.408;-4.498;2023-04-25T08:11:10;14.41;59.65
69944;DHT22;57257;48.408;-4.498;2023-04-25T08:13:36;14.72;59.93
69944;DHT22;57257;48.408;-4.498;2023-04-25T08:16:01;15.06;58.85
69944;DHT22;57257;48.408;-4.498;2023-04-25T08:18:27;15.39;58.43
69944;DHT22;57257;48.408;-4.498;2023-04-25T08:20:53;15.62;57.68
69944;DHT22;57257;48.408;-4.498;2023-04-25T08:23:18;15.60;56.95
69944;DHT22;57257;48.408;-4.498;2023-04-25T08:25:44;15.57;56.73
69944;DHT22;57257;48.408;-4.498;2023-04-25T08:28:09;15.54;56.70
69944;DHT22;57257;48.408;-4.498;2023-04-25T08:30:36;15.52;56.70
69944;DHT22;57257;48.408;-4.498;2023-04-25T08:33:02;15.60;56.30
69944;DHT22;57257;48.408;-4.498;2023-04-25T08:35:27;15.56;56.15
69944;DHT22;57257;48.408;-4.498;2023-04-25T08:37:56;15.52;56.13
69944;DHT22;57257;48.408;-4.498;2023-04-25T08:40:22;15.42;55.44
69944;DHT22;57257;48.408;-4.498;2023-04-25T08:42:52;15.35;55.69
69944;DHT22;57257;48.408;-4.498;2023-04-25T08:45:18;15.35;55.93
69944;DHT22;57257;48.408;-4.498;2023-04-25T08:47:45;15.47;56.19
69944;DHT22;57257;48.408;-4.498;2023-04-25T08:50:11;15.63;55.88
69944;DHT22;57257;48.408;-4.498;2023-04-25T08:52:44;15.80;55.02
69944;DHT22;57257;48.408;-4.498;2023-04-25T08:55:12;15.93;54.56
69944;DHT22;57257;48.408;-4.498;2023-04-25T08:57:39;16.08;53.82
69944;DHT22;57257;48.408;-4.498;2023-04-25T09:00:09;16.18;54.35
69944;DHT22;57257;48.408;-4.498;2023-04-25T09:02:35;16.24;53.92
69944;DHT22;57257;48.408;-4.498;2023-04-25T09:05:04;16.18;54.38
69944;DHT22;57257;48.408;-4.498;2023-04-25T09:07:30;16.20;54.22
69944;DHT22;57257;48.408;-4.498;2023-04-25T09:09:55;16.28;54.22
69944;DHT22;57257;48.408;-4.498;2023-04-25T09:12:21;16.38;53.82
69944;DHT22;57257;48.408;-4.498;2023-04-25T09:15:09;16.29;53.19
69944;DHT22;57257;48.408;-4.498;2023-04-25T09:17:35;16.24;54.03
69944;DHT22;57257;48.408;-4.498;2023-04-25T09:20:14;16.29;53.56
69944;DHT22;57257;48.408;-4.498;2023-04-25T09:22:40;16.20;53.22
69944;DHT22;57257;48.408;-4.498;2023-04-25T09:25:10;16.11;53.17
69944;DHT22;57257;48.408;-4.498;2023-04-25T09:27:36;16.06;53.34
69944;DHT22;57257;48.408;-4.498;2023-04-25T09:30:15;16.06;53.42
69944;DHT22;57257;48.408;-4.498;2023-04-25T09:32:56;16.20;53.90
69944;DHT22;57257;48.408;-4.498;2023-04-25T09:35:25;16.32;53.02
69944;DHT22;57257;48.408;-4.498;2023-04-25T09:37:51;16.38;53.37
69944;DHT22;57257;48.408;-4.498;2023-04-25T09:40:17;16.47;53.35
69944;DHT22;57257;48.408;-4.498;2023-04-25T09:42:43;16.45;52.87
69944;DHT22;57257;48.408;-4.498;2023-04-25T09:45:20;16.41;53.50
69944;DHT22;57257;48.408;-4.498;2023-04-25T09:47:46;16.38;53.57
69944;DHT22;57257;48.408;-4.498;2023-04-25T09:50:16;16.31;53.17
69944;DHT22;57257;48.408;-4.498;2023-04-25T09:52:43;16.25;53.41
69944;DHT22;57257;48.408;-4.498;2023-04-25T09:55:11;16.25;52.91
69944;DHT22;57257;48.408;-4.498;2023-04-25T09:57:37;16.22;52.29
69944;DHT22;57257;48.408;-4.498;2023-04-25T10:00:14;16.22;53.25
69944;DHT22;57257;48.408;-4.498;2023-04-25T10:02:42;16.41;52.81
69944;DHT22;57257;48.408;-4.498;2023-04-25T10:05:08;16.47;52.49
69944;DHT22;57257;48.408;-4.498;2023-04-25T10:07:36;16.18;52.18
69944;DHT22;57257;48.408;-4.498;2023-04-25T10:10:04;16.22;53.09
69944;DHT22;57257;48.408;-4.498;2023-04-25T10:12:34;16.31;53.24
69944;DHT22;57257;48.408;-4.498;2023-04-25T10:15:04;16.42;53.01
69944;DHT22;57257;48.408;-4.498;2023-04-25T10:17:33;16.42;52.86
69944;DHT22;57257;48.408;-4.498;2023-04-25T10:20:02;16.42;52.99
69944;DHT22;57257;48.408;-4.498;2023-04-25T10:23:06;16.47;53.04
69944;DHT22;57257;48.408;-4.498;2023-04-25T10:25:33;16.37;52.96
69944;DHT22;57257;48.408;-4.498;2023-04-25T10:28:00;16.48;52.45
69944;DHT22;57257;48.408;-4.498;2023-04-25T10:30:30;16.44;51.87
69944;DHT22;57257;48.408;-4.498;2023-04-25T10:32:56;16.47;51.30
69944;DHT22;57257;48.408;-4.498;2023-04-25T10:35:45;16.42;50.94
69944;DHT22;57257;48.408;-4.498;2023-04-25T10:38:15;16.42;51.24
69944;DHT22;57257;48.408;-4.498;2023-04-25T10:40:41;16.47;51.21
69944;DHT22;57257;48.408;-4.498;2023-04-25T10:46:28;16.57;51.50
69944;DHT22;57257;48.408;-4.498;2023-04-25T10:49:32;16.62;51.13
69944;DHT22;57257;48.408;-4.498;2023-04-25T10:52:26;16.68;50.81
69944;DHT22;57257;48.408;-4.498;2023-04-25T10:54:59;16.81;51.29
69944;DHT22;57257;48.408;-4.498;2023-04-25T11:00:49;17.05;49.11
69944;DHT22;57257;48.408;-4.498;2023-04-25T11:03:17;16.99;49.72
69944;DHT22;57257;48.408;-4.498;2023-04-25T11:05:48;17.06;49.80
69944;DHT22;57257;48.408;-4.498;2023-04-25T11:08:32;17.23;48.79
69944;DHT22;57257;48.408;-4.498;2023-04-25T11:11:03;17.26;48.39
69944;DHT22;57257;48.408;-4.498;2023-04-25T11:13:31;17.24;49.40
69944;DHT22;57257;48.408;-4.498;2023-04-25T11:15:56;17.20;49.47
69944;DHT22;57257;48.408;-4.498;2023-04-25T11:18:26;17.16;49.20
69944;DHT22;57257;48.408;-4.498;2023-04-25T11:20:52;17.19;49.08
69944;DHT22;57257;48.408;-4.498;2023-04-25T11:23:22;17.30;49.33
69944;DHT22;57257;48.408;-4.498;2023-04-25T11:25:51;17.40;49.00
69944;DHT22;57257;48.408;-4.498;2023-04-25T11:28:21;17.49;49.15
69944;DHT22;57257;48.408;-4.498;2023-04-25T11:30:50;17.50;47.84
69944;DHT22;57257;48.408;-4.498;2023-04-25T11:33:16;17.59;48.54
69944;DHT22;57257;48.408;-4.498;2023-04-25T11:35:42;17.69;48.10
69944;DHT22;57257;48.408;-4.498;2023-04-25T11:38:07;17.81;47.94
69944;DHT22;57257;48.408;-4.498;2023-04-25T11:40:33;17.96;47.36
69944;DHT22;57257;48.408;-4.498;2023-04-25T11:43:00;18.00;47.17
69944;DHT22;57257;48.408;-4.498;2023-04-25T11:45:26;18.05;46.94
69944;DHT22;57257;48.408;-4.498;2023-04-25T11:47:52;18.14;46.58
69944;DHT22;57257;48.408;-4.498;2023-04-25T11:50:18;18.09;46.58
69944;DHT22;57257;48.408;-4.498;2023-04-25T11:53:14;18.11;46.87
69944;DHT22;57257;48.408;-4.498;2023-04-25T11:55:42;18.07;46.84
69944;DHT22;57257;48.408;-4.498;2023-04-25T11:58:11;18.04;46.72
69944;DHT22;57257;48.408;-4.498;2023-04-25T12:00:41;18.00;46.74
69944;DHT22;57257;48.408;-4.498;2023-04-25T12:03:09;17.97;47.24
69944;DHT22;57257;48.408;-4.498;2023-04-25T12:05:34;17.94;46.86
69944;DHT22;57257;48.408;-4.498;2023-04-25T12:08:13;17.88;47.08
69944;DHT22;57257;48.408;-4.498;2023-04-25T12:10:40;17.86;47.01
69944;DHT22;57257;48.408;-4.498;2023-04-25T12:13:22;17.76;46.69
69944;DHT22;57257;48.408;-4.498;2023-04-25T12:15:48;17.70;46.79
69944;DHT22;57257;48.408;-4.498;2023-04-25T12:18:14;17.69;47.44
69944;DHT22;57257;48.408;-4.498;2023-04-25T12:20:41;17.74;47.45
69944;DHT22;57257;48.408;-4.498;2023-04-25T12:23:07;17.80;47.52
69944;DHT22;57257;48.408;-4.498;2023-04-25T12:28:24;17.76;47.12
69944;DHT22;57257;48.408;-4.498;2023-04-25T12:31:01;17.74;46.68
69944;DHT22;57257;48.408;-4.498;2023-04-25T12:33:30;17.70;46.91
69944;DHT22;57257;48.408;-4.498;2023-04-25T12:35:57;17.66;46.94
69944;DHT22;57257;48.408;-4.498;2023-04-25T12:38:29;17.67;47.17
69944;DHT22;57257;48.408;-4.498;2023-04-25T12:40:59;17.67;47.42
69944;DHT22;57257;48.408;-4.498;2023-04-25T12:43:25;17.69;47.27
69944;DHT22;57257;48.408;-4.498;2023-04-25T12:45:53;17.63;46.98
69944;DHT22;57257;48.408;-4.498;2023-04-25T12:48:21;17.54;47.39
69944;DHT22;57257;48.408;-4.498;2023-04-25T12:50:52;17.53;46.93
69944;DHT22;57257;48.408;-4.498;2023-04-25T12:53:23;17.26;47.59
69944;DHT22;57257;48.408;-4.498;2023-04-25T12:55:50;17.15;47.32
69944;DHT22;57257;48.408;-4.498;2023-04-25T12:58:18;17.08;47.72
69944;DHT22;57257;48.408;-4.498;2023-04-25T13:00:45;17.03;47.88
69944;DHT22;57257;48.408;-4.498;2023-04-25T13:03:11;16.99;47.78
69944;DHT22;57257;48.408;-4.498;2023-04-25T13:05:37;16.89;47.88
69944;DHT22;57257;48.408;-4.498;2023-04-25T13:08:03;16.81;47.86
69944;DHT22;57257;48.408;-4.498;2023-04-25T13:10:29;16.82;47.97
69944;DHT22;57257;48.408;-4.498;2023-04-25T13:12:55;16.78;47.90
69944;DHT22;57257;48.408;-4.498;2023-04-25T13:15:23;16.78;47.60
69944;DHT22;57257;48.408;-4.498;2023-04-25T13:17:50;16.76;47.88
69944;DHT22;57257;48.408;-4.498;2023-04-25T13:20:15;16.85;47.38
69944;DHT22;57257;48.408;-4.498;2023-04-25T13:22:42;16.91;47.70
69944;DHT22;57257;48.408;-4.498;2023-04-25T13:25:08;16.98;48.24
69944;DHT22;57257;48.408;-4.498;2023-04-25T13:27:34;16.95;49.35
69944;DHT22;57257;48.408;-4.498;2023-04-25T13:30:01;16.85;50.17
69944;DHT22;57257;48.408;-4.498;2023-04-25T13:32:29;16.83;51.30
69944;DHT22;57257;48.408;-4.498;2023-04-25T13:34:55;16.62;51.33
69944;DHT22;57257;48.408;-4.498;2023-04-25T13:37:21;16.54;51.87
69944;DHT22;57257;48.408;-4.498;2023-04-25T13:39:49;16.47;51.39
69944;DHT22;57257;48.408;-4.498;2023-04-25T13:42:16;16.40;51.88
69944;DHT22;57257;48.408;-4.498;2023-04-25T13:44:41;16.45;52.04
69944;DHT22;57257;48.408;-4.498;2023-04-25T13:47:07;16.44;52.10
69944;DHT22;57257;48.408;-4.498;2023-04-25T13:49:32;16.31;52.69
69944;DHT22;57257;48.408;-4.498;2023-04-25T13:51:58;16.37;53.74
69944;DHT22;57257;48.408;-4.498;2023-04-25T13:54:23;16.38;54.68
69944;DHT22;57257;48.408;-4.498;2023-04-25T13:56:49;16.42;55.01
69944;DHT22;57257;48.408;-4.498;2023-04-25T13:59:15;16.49;55.73
69944;DHT22;57257;48.408;-4.498;2023-04-25T14:01:41;16.54;55.54
69944;DHT22;57257;48.408;-4.498;2023-04-25T14:04:06;16.49;55.71
69944;DHT22;57257;48.408;-4.498;2023-04-25T14:06:35;16.38;56.41
69944;DHT22;57257;48.408;-4.498;2023-04-25T14:09:00;16.40;56.47
69944;DHT22;57257;48.408;-4.498;2023-04-25T14:11:26;16.48;56.88
69944;DHT22;57257;48.408;-4.498;2023-04-25T14:13:51;16.62;56.39
69944;DHT22;57257;48.408;-4.498;2023-04-25T14:16:17;16.62;56.69
69944;DHT22;57257;48.408;-4.498;2023-04-25T14:18:43;16.47;56.41
69944;DHT22;57257;48.408;-4.498;2023-04-25T14:21:09;16.41;57.08
69944;DHT22;57257;48.408;-4.498;2023-04-25T14:23:35;16.38;56.69
69944;DHT22;57257;48.408;-4.498;2023-04-25T14:26:00;16.29;57.55
69944;DHT22;57257;48.408;-4.498;2023-04-25T14:28:25;16.35;57.72
69944;DHT22;57257;48.408;-4.498;2023-04-25T14:30:51;16.42;58.09
69944;DHT22;57257;48.408;-4.498;2023-04-25T14:33:16;16.41;57.89
69944;DHT22;57257;48.408;-4.498;2023-04-25T14:35:42;16.47;57.51
69944;DHT22;57257;48.408;-4.498;2023-04-25T14:38:07;16.40;57.00
69944;DHT22;57257;48.408;-4.498;2023-04-25T14:40:33;16.28;57.06
69944;DHT22;57257;48.408;-4.498;2023-04-25T14:42:58;16.21;57.09
69944;DHT22;57257;48.408;-4.498;2023-04-25T14:45:24;16.20;56.75
69944;DHT22;57257;48.408;-4.498;2023-04-25T14:47:50;16.17;56.93
69944;DHT22;57257;48.408;-4.498;2023-04-25T14:50:15;16.14;57.05
69944;DHT22;57257;48.408;-4.498;2023-04-25T14:52:40;16.04;57.19
69944;DHT22;57257;48.408;-4.498;2023-04-25T14:55:06;15.91;57.20
69944;DHT22;57257;48.408;-4.498;2023-04-25T14:57:33;15.84;57.27
69944;DHT22;57257;48.408;-4.498;2023-04-25T14:59:59;15.82;57.23
69944;DHT22;57257;48.408;-4.498;2023-04-25T15:02:24;15.71;57.33
69944;DHT22;57257;48.408;-4.498;2023-04-25T15:05:02;15.64;57.60
69944;DHT22;57257;48.408;-4.498;2023-04-25T15:07:28;15.70;57.63
69944;DHT22;57257;48.408;-4.498;2023-04-25T15:09:54;15.76;57.41
69944;DHT22;57257;48.408;-4.498;2023-04-25T15:12:21;15.69;57.53
69944;DHT22;57257;48.408;-4.498;2023-04-25T15:14:46;15.70;57.91
69944;DHT22;57257;48.408;-4.498;2023-04-25T15:17:11;15.80;57.91
69944;DHT22;57257;48.408;-4.498;2023-04-25T15:19:39;15.97;57.40
69944;DHT22;57257;48.408;-4.498;2023-04-25T15:22:05;16.16;57.20
69944;DHT22;57257;48.408;-4.498;2023-04-25T15:24:31;16.32;57.06